Pittstown, NJ (08867)

12:28 PM EST on January 27, 2015 (GMT -0500)
Allerton | Change Station
CLOSE
Current Station
Personal Weather Station
Location: Annandale, NJ
Elevation: 200 ft
Nearby Weather Stations
Active Advisory: Winter Weather Advisory Active Notice: Public Information Statement

Elev 200 ft 40.60 °N, 74.89 °W | Updated 50 seconds ago

Snow
Snow
27.6 °F
Feels Like 19 °F
N
9.0
Wind Variable Wind from WNW
Gusts 16.0 mph

Today
High -- | Low -- °F
--% Chance of Precip.
Yesterday
High -- | Low -- °F
Precip. -- in
7:14 AM 5:11 PM
First Quarter, 56% visible
Pressure 29.70 in
Visibility 3.0 miles
Clouds Mostly Cloudy 3700 ft
Overcast 4700 ft
Windchill 19 °F
Dew Point 12 °F
Humidity 51%
Rainfall 0.00 in
Snow Depth Not available.
UV 1 out of 12
Pollen .10 out of 12
Air Quality Not available.
Flu Activity Not available.
SPECI KSMQ 271718Z AUTO 33014G19KT 3SM -SN BKN037 OVC047 M04/M09 A2970 RMK AO2 P0000 T10391089 TSNO

More Conditions Fewer Conditions

Pressure 29.70 in
Visibility 3.0 miles
Clouds Mostly Cloudy 3700 ft
Overcast 4700 ft
Windchill 19 °F
Dew Point 12 °F
Humidity 51%
Rainfall 0.00 in
Snow Depth Not available.
UV 1 out of 12
Pollen .10 out of 12
Air Quality Not available.
Flu Activity Not available.
SPECI KSMQ 271718Z AUTO 33014G19KT 3SM -SN BKN037 OVC047 M04/M09 A2970 RMK AO2 P0000 T10391089 TSNO

More Conditions Fewer Conditions

10-Day Weather Forecast

Almanac

Astronomy

Jan. 27, 2015 Rise Set
Actual Time
Civil Twilight
Nautical Twilight
Astronomical Twilight
Moon
Length of Visible Light
Length of Day
Tomorrow will be .
, % of the Moon is Illuminated

Today's Extremes

State Highs State Lows

Community

WunderPhotos

Upload Photos

1,790,731 photos uploaded!

WunderBlogs® & News

Nearby

Air Quality

  Air Quality AQ Index Pollutant
Not available.

Snow Depth

Station Depth Elevation

Earthquake Activity

City Distance Mag. Time & Date
Minimum magnitude displayed is 2.5.

Coastal Water Temperatures

Place Temperature

Nearby Weather Stations